Time;durP1;ratioP1;P1;durP2;ratioP2;P2;SDS_P1;SDS_P2;PMS_P1;PMS_P2;Temp;Humidity;BMP_temperature;BMP_pressure;BME280_temperature;BME280_humidity;BME280_pressure;Samples;Min_cycle;Max_cycle;Signal;HPM_P1;HPM_P2
2024/01/17 00:00:31;;;;;;;9.23;5.53;;;-1.50;99.90;;;;;;5053840;28;20208;-64
2024/01/17 00:02:58;;;;;;;7.18;6.22;;;-1.50;99.90;;;;;;5053108;28;20351;-62
2024/01/17 00:05:25;;;;;;;5.95;5.25;;;-1.50;99.90;;;;;;5053886;28;20204;-62
2024/01/17 00:07:53;;;;;;;8.40;5.22;;;-1.50;99.90;;;;;;5053218;28;20194;-64
2024/01/17 00:10:19;;;;;;;11.38;6.32;;;-1.50;99.90;;;;;;5053302;28;20213;-64
2024/01/17 00:12:46;;;;;;;14.55;5.90;;;-1.60;99.90;;;;;;5052926;28;20707;-63
2024/01/17 00:15:13;;;;;;;8.88;5.40;;;-1.60;99.90;;;;;;5053094;28;20676;-63
2024/01/17 00:17:40;;;;;;;7.80;5.53;;;-1.60;99.90;;;;;;5053196;28;20214;-63
2024/01/17 00:20:08;;;;;;;7.25;5.75;;;-1.60;99.90;;;;;;5053062;28;20202;-63
2024/01/17 00:22:35;;;;;;;16.65;5.95;;;-1.60;99.90;;;;;;5052473;28;20707;-63
2024/01/17 00:25:03;;;;;;;10.07;5.72;;;-1.60;99.90;;;;;;5052819;28;20198;-63
2024/01/17 00:27:30;;;;;;;8.98;6.18;;;-1.60;99.90;;;;;;5053083;28;20278;-63
2024/01/17 00:29:58;;;;;;;14.45;6.55;;;-1.60;99.90;;;;;;5056906;28;20202;-64
2024/01/17 00:32:25;;;;;;;11.13;6.18;;;-1.60;99.90;;;;;;5071363;28;20283;-63
2024/01/17 00:34:52;;;;;;;9.15;5.50;;;-1.60;99.90;;;;;;5067187;28;20197;-63
2024/01/17 00:37:19;;;;;;;7.10;5.72;;;-1.60;99.90;;;;;;5057178;28;20226;-64
2024/01/17 00:39:46;;;;;;;7.60;5.35;;;-1.60;99.90;;;;;;5056642;28;20571;-63
2024/01/17 00:42:14;;;;;;;8.68;5.32;;;-1.50;99.90;;;;;;5057109;28;20222;-64
2024/01/17 00:44:41;;;;;;;7.35;5.32;;;-1.50;99.90;;;;;;5057813;28;20223;-64
2024/01/17 00:47:09;;;;;;;9.27;4.95;;;-1.40;99.90;;;;;;5057631;28;20214;-64
2024/01/17 00:49:35;;;;;;;12.27;5.55;;;-1.40;99.90;;;;;;5057787;28;20551;-65
2024/01/17 00:52:02;;;;;;;10.80;5.35;;;-1.40;99.90;;;;;;5057876;28;20589;-64
2024/01/17 00:54:29;;;;;;;8.45;5.15;;;-1.30;99.90;;;;;;5060997;28;20732;-63
2024/01/17 00:56:56;;;;;;;5.93;4.78;;;-1.30;99.90;;;;;;5058487;28;20388;-64
2024/01/17 00:59:24;;;;;;;9.80;5.38;;;-1.30;99.90;;;;;;5056610;28;20232;-63
2024/01/17 01:01:50;;;;;;;8.23;5.70;;;-1.30;99.90;;;;;;5056187;28;20233;-62
2024/01/17 01:04:17;;;;;;;6.47;4.85;;;-1.30;99.90;;;;;;5056291;28;20679;-64
2024/01/17 01:06:44;;;;;;;7.25;5.00;;;-1.20;99.90;;;;;;5056408;28;20243;-63
2024/01/17 01:09:11;;;;;;;5.35;4.53;;;-1.20;99.90;;;;;;5056848;28;20205;-64
2024/01/17 01:11:37;;;;;;;10.40;5.10;;;-1.20;99.90;;;;;;5056527;28;20245;-63
2024/01/17 01:14:04;;;;;;;7.80;4.85;;;-1.20;99.90;;;;;;5056666;28;20210;-64
2024/01/17 01:16:32;;;;;;;13.10;5.45;;;-1.20;99.90;;;;;;5056411;28;20205;-64
2024/01/17 01:18:59;;;;;;;9.48;5.32;;;-1.20;99.90;;;;;;5056039;28;20229;-64
2024/01/17 01:21:26;;;;;;;9.50;5.00;;;-1.20;99.90;;;;;;5057999;28;20229;-64
2024/01/17 01:23:52;;;;;;;11.88;5.40;;;-1.20;99.90;;;;;;5056789;28;20229;-65
2024/01/17 01:26:19;;;;;;;6.50;5.05;;;-1.20;99.90;;;;;;5056018;28;20202;-64
2024/01/17 01:28:46;;;;;;;6.88;4.43;;;-1.20;99.90;;;;;;5056001;28;20551;-64
2024/01/17 01:31:13;;;;;;;5.63;4.72;;;-1.20;99.90;;;;;;5056698;28;20225;-63
2024/01/17 01:33:41;;;;;;;7.10;4.50;;;-1.20;99.90;;;;;;5057143;28;20210;-64
2024/01/17 01:36:08;;;;;;;7.78;5.40;;;-1.20;99.90;;;;;;5056590;28;20205;-63
2024/01/17 01:38:34;;;;;;;10.95;5.15;;;-1.20;99.90;;;;;;5055685;28;20222;-63
2024/01/17 01:41:01;;;;;;;9.20;4.75;;;-1.30;99.90;;;;;;5054652;28;20208;-63
2024/01/17 01:43:28;;;;;;;7.85;4.72;;;-1.30;99.90;;;;;;5055825;28;20668;-63
2024/01/17 01:46:12;;;;;;;5.43;4.35;;;-1.30;99.90;;;;;;5055937;28;20293;-63
2024/01/17 01:48:41;;;;;;;7.55;4.50;;;-1.40;99.90;;;;;;5055836;28;20647;-64
2024/01/17 01:51:08;;;;;;;7.60;4.15;;;-1.40;99.90;;;;;;5057669;28;20694;-64
2024/01/17 01:53:36;;;;;;;7.25;4.25;;;-1.40;99.90;;;;;;5058683;28;20208;-64
2024/01/17 01:56:03;;;;;;;5.88;4.65;;;-1.50;99.90;;;;;;5059406;28;20217;-64
2024/01/17 01:58:32;;;;;;;5.88;4.38;;;-1.50;99.90;;;;;;5059950;28;20214;-63
2024/01/17 02:01:00;;;;;;;9.77;5.32;;;-1.50;99.90;;;;;;5059750;28;20212;-64
2024/01/17 02:03:29;;;;;;;5.70;4.00;;;-1.50;99.90;;;;;;5056120;28;20182;-64
2024/01/17 02:05:58;;;;;;;5.53;4.15;;;-1.50;99.90;;;;;;5056216;28;20205;-64
2024/01/17 02:08:25;;;;;;;13.50;5.00;;;-1.50;99.90;;;;;;5056493;28;20202;-64
2024/01/17 02:10:52;;;;;;;7.45;5.28;;;-1.50;99.90;;;;;;5057446;28;20209;-64
2024/01/17 02:13:19;;;;;;;4.90;4.25;;;-1.50;99.90;;;;;;5058459;28;20223;-64
2024/01/17 02:15:46;;;;;;;12.85;5.63;;;-1.60;99.90;;;;;;5059160;28;20205;-63
2024/01/17 02:18:13;;;;;;;10.45;4.75;;;-1.60;99.90;;;;;;5059015;28;20226;-63
2024/01/17 02:20:39;;;;;;;7.18;5.45;;;-1.60;99.90;;;;;;5059229;28;20212;-63
2024/01/17 02:23:23;;;;;;;7.13;4.80;;;-1.70;99.90;;;;;;5058296;28;20226;-64
2024/01/17 02:25:52;;;;;;;9.43;5.10;;;-1.70;99.90;;;;;;5058197;28;20189;-63
2024/01/17 02:28:19;;;;;;;7.03;4.80;;;-1.70;99.90;;;;;;5068706;28;20216;-63
2024/01/17 02:30:46;;;;;;;4.75;4.18;;;-1.60;99.90;;;;;;5064096;28;20209;-64
2024/01/17 02:33:13;;;;;;;10.73;4.60;;;-1.70;99.90;;;;;;5054534;28;20603;-64
2024/01/17 02:35:40;;;;;;;5.78;3.75;;;-1.70;99.90;;;;;;5054716;28;20205;-64
2024/01/17 02:38:07;;;;;;;11.82;4.30;;;-1.70;99.90;;;;;;5054530;28;20233;-63
2024/01/17 02:40:34;;;;;;;7.10;4.55;;;-1.70;99.90;;;;;;5054431;28;20708;-65
2024/01/17 02:43:02;;;;;;;7.55;4.32;;;-1.70;99.90;;;;;;5054550;28;20328;-63
2024/01/17 02:45:29;;;;;;;6.82;4.22;;;-1.70;99.90;;;;;;5054477;28;20216;-64
2024/01/17 02:47:55;;;;;;;6.15;4.90;;;-1.80;99.90;;;;;;5054266;28;20694;-62
2024/01/17 02:50:22;;;;;;;9.00;4.80;;;-1.80;99.90;;;;;;5054454;28;20193;-64
2024/01/17 02:52:49;;;;;;;6.15;4.20;;;-1.80;99.90;;;;;;5053145;28;20467;-64
2024/01/17 02:55:16;;;;;;;7.05;4.35;;;-1.80;99.90;;;;;;5054088;28;20210;-63
2024/01/17 02:57:44;;;;;;;11.43;4.68;;;-1.80;99.90;;;;;;5054256;28;20247;-63
2024/01/17 03:00:13;;;;;;;4.97;3.90;;;-1.80;99.90;;;;;;5055467;28;20208;-63
2024/01/17 03:02:40;;;;;;;6.28;4.00;;;-1.80;99.90;;;;;;5054518;28;20234;-65
2024/01/17 03:05:08;;;;;;;12.70;4.25;;;-1.80;99.90;;;;;;5054235;28;20206;-65
2024/01/17 03:07:35;;;;;;;6.70;4.25;;;-1.80;99.90;;;;;;5054183;28;20259;-64
2024/01/17 03:10:02;;;;;;;6.28;4.60;;;-1.90;99.90;;;;;;5054039;28;20668;-63
2024/01/17 03:12:28;;;;;;;9.70;3.85;;;-1.90;99.90;;;;;;5053825;28;20226;-65
2024/01/17 03:14:55;;;;;;;9.90;4.35;;;-1.90;99.90;;;;;;5053919;28;20209;-65
2024/01/17 03:17:23;;;;;;;5.60;3.80;;;-1.90;99.90;;;;;;5053962;28;20205;-64
2024/01/17 03:19:50;;;;;;;4.80;3.42;;;-1.90;99.90;;;;;;5053480;28;20241;-64
2024/01/17 03:22:17;;;;;;;7.65;3.70;;;-2.00;99.90;;;;;;5053410;28;20232;-64
2024/01/17 03:24:45;;;;;;;6.80;4.05;;;-2.00;99.90;;;;;;5053947;28;20255;-65
2024/01/17 03:27:13;;;;;;;6.90;4.53;;;-2.00;99.90;;;;;;5053613;28;20233;-65
2024/01/17 03:29:39;;;;;;;4.63;3.83;;;-2.10;99.90;;;;;;5053783;28;20246;-64
2024/01/17 03:32:07;;;;;;;6.78;4.68;;;-2.10;99.90;;;;;;5053248;28;20772;-65
2024/01/17 03:34:35;;;;;;;8.35;4.20;;;-2.10;99.90;;;;;;5053339;28;20206;-64
2024/01/17 03:37:02;;;;;;;12.00;4.50;;;-2.10;99.90;;;;;;5054004;28;20201;-64
2024/01/17 03:39:29;;;;;;;7.20;4.47;;;-2.10;99.90;;;;;;5053337;28;20229;-62
2024/01/17 03:41:55;;;;;;;6.93;3.85;;;-2.10;99.90;;;;;;5052904;28;20734;-64
2024/01/17 03:44:23;;;;;;;4.40;3.72;;;-2.10;99.90;;;;;;5053668;28;20217;-64
2024/01/17 03:46:49;;;;;;;9.15;4.43;;;-2.10;99.90;;;;;;5053802;28;20255;-64
2024/01/17 03:49:16;;;;;;;8.25;3.58;;;-2.10;99.90;;;;;;5053652;28;20202;-64
2024/01/17 03:51:44;;;;;;;5.75;4.25;;;-2.10;99.90;;;;;;5057287;28;20614;-63
2024/01/17 03:54:11;;;;;;;8.60;4.13;;;-2.10;99.90;;;;;;5056950;28;20201;-63
2024/01/17 03:56:38;;;;;;;8.02;3.20;;;-2.20;99.90;;;;;;5054464;28;20205;-64
2024/01/17 03:59:05;;;;;;;8.02;4.05;;;-2.20;99.90;;;;;;5053945;28;20218;-63
2024/01/17 04:01:32;;;;;;;5.70;4.00;;;-2.20;99.90;;;;;;5052889;28;20279;-64
2024/01/17 04:03:59;;;;;;;10.00;3.88;;;-2.20;99.90;;;;;;5052817;28;20190;-64
2024/01/17 04:06:28;;;;;;;7.25;4.70;;;-2.20;99.90;;;;;;5053035;28;20579;-64
2024/01/17 04:08:57;;;;;;;9.77;3.90;;;-2.30;99.90;;;;;;5052807;28;20194;-64
2024/01/17 04:13:00;;;;;;;11.23;4.85;;;-2.30;99.90;;;;;;5090069;28;20583;-65
2024/01/17 04:15:28;;;;;;;4.88;3.90;;;-2.30;99.90;;;;;;5090285;28;20681;-64
2024/01/17 04:17:55;;;;;;;5.78;4.00;;;-2.30;99.90;;;;;;5090053;28;20287;-64
2024/01/17 04:20:22;;;;;;;7.38;4.15;;;-2.30;99.90;;;;;;5090103;28;20212;-64
2024/01/17 04:22:48;;;;;;;6.07;4.15;;;-2.40;99.90;;;;;;5089681;28;20655;-63
2024/01/17 04:25:15;;;;;;;7.68;4.50;;;-2.40;99.90;;;;;;5090441;28;20204;-63
2024/01/17 04:27:42;;;;;;;8.98;4.95;;;-2.40;99.90;;;;;;5090524;28;20210;-62
2024/01/17 04:30:13;;;;;;;6.00;4.53;;;-2.30;99.90;;;;;;5090292;28;20200;-64
2024/01/17 04:32:41;;;;;;;14.93;4.35;;;-2.30;99.90;;;;;;5090061;28;20315;-64
2024/01/17 04:35:08;;;;;;;7.85;5.00;;;-2.30;99.90;;;;;;5090910;28;20250;-64
2024/01/17 04:37:35;;;;;;;8.50;5.22;;;-2.30;99.90;;;;;;5090233;28;20204;-61
2024/01/17 04:40:02;;;;;;;8.30;5.05;;;-2.20;99.90;;;;;;5091265;28;20226;-63
2024/01/17 04:42:29;;;;;;;7.32;3.88;;;-2.20;99.90;;;;;;5090189;28;20213;-63
2024/01/17 04:44:55;;;;;;;7.70;4.60;;;-2.20;99.90;;;;;;5091059;28;20287;-63
2024/01/17 04:47:23;;;;;;;7.43;5.22;;;-2.20;99.90;;;;;;5093996;28;20651;-64
2024/01/17 04:49:50;;;;;;;8.80;4.95;;;-2.10;99.90;;;;;;5097347;28;20227;-62
2024/01/17 04:52:18;;;;;;;8.90;5.15;;;-2.10;99.90;;;;;;5097423;28;20226;-61
2024/01/17 04:54:45;;;;;;;9.35;5.60;;;-2.10;99.90;;;;;;5099878;28;20671;-65
2024/01/17 04:57:12;;;;;;;6.32;5.25;;;-2.10;99.90;;;;;;5099892;28;20201;-64
2024/01/17 04:59:39;;;;;;;10.30;6.10;;;-2.00;99.90;;;;;;5102575;28;20240;-63
2024/01/17 05:02:06;;;;;;;9.10;6.00;;;-2.00;99.90;;;;;;5097229;28;20299;-63
2024/01/17 05:04:34;;;;;;;8.70;5.55;;;-2.10;99.90;;;;;;5090668;28;20201;-64
2024/01/17 05:07:00;;;;;;;9.70;5.55;;;-2.10;99.90;;;;;;5089480;28;20212;-64
2024/01/17 05:09:28;;;;;;;7.72;5.85;;;-2.10;99.90;;;;;;5089908;28;20200;-64
2024/01/17 05:11:57;;;;;;;7.90;5.80;;;-2.10;99.90;;;;;;5092820;28;20224;-63
2024/01/17 05:14:23;;;;;;;10.45;6.13;;;-2.10;99.90;;;;;;5094585;28;20668;-65
2024/01/17 05:16:51;;;;;;;12.25;7.10;;;-2.20;99.90;;;;;;5089583;28;20726;-65
2024/01/17 05:19:18;;;;;;;8.68;5.90;;;-2.20;99.90;;;;;;5089676;28;20200;-63
2024/01/17 05:21:46;;;;;;;10.27;6.38;;;-2.20;99.90;;;;;;5089076;28;20212;-65
2024/01/17 05:24:12;;;;;;;8.13;6.20;;;-2.20;99.90;;;;;;5076727;28;20212;-64
2024/01/17 05:26:39;;;;;;;9.75;7.30;;;-2.20;99.90;;;;;;5075706;28;20204;-64
2024/01/17 05:29:06;;;;;;;7.95;7.00;;;-2.20;99.90;;;;;;5076293;28;20549;-64
2024/01/17 05:31:33;;;;;;;22.75;8.25;;;-2.30;99.90;;;;;;5076105;28;20682;-64
2024/01/17 05:33:59;;;;;;;10.43;7.13;;;-2.30;99.90;;;;;;5077554;28;20200;-64
2024/01/17 05:36:26;;;;;;;10.40;6.10;;;-2.30;99.90;;;;;;5075732;28;20674;-64
2024/01/17 05:38:54;;;;;;;14.70;7.28;;;-2.30;99.90;;;;;;5075689;28;20208;-64
2024/01/17 05:41:21;;;;;;;9.07;6.90;;;-2.30;99.90;;;;;;5075134;28;20213;-64
2024/01/17 05:43:48;;;;;;;13.95;8.13;;;-2.30;99.90;;;;;;5075306;28;20211;-64
2024/01/17 05:46:14;;;;;;;8.63;6.75;;;-2.40;99.90;;;;;;5075610;28;20197;-63
2024/01/17 05:48:41;;;;;;;12.65;7.78;;;-2.40;99.90;;;;;;5075148;28;20651;-64
2024/01/17 05:51:08;;;;;;;12.18;7.78;;;-2.40;99.90;;;;;;5075640;28;20205;-64
2024/01/17 05:53:34;;;;;;;12.20;7.20;;;-2.30;99.90;;;;;;5075809;28;20211;-63
2024/01/17 05:56:03;;;;;;;10.65;7.80;;;-2.30;99.90;;;;;;5075440;28;20228;-63
2024/01/17 05:58:29;;;;;;;13.02;7.05;;;-2.30;99.90;;;;;;5076189;28;20197;-63
2024/01/17 06:00:56;;;;;;;12.20;7.35;;;-2.30;99.90;;;;;;5075735;28;20585;-64
2024/01/17 06:03:23;;;;;;;16.48;8.57;;;-2.30;99.90;;;;;;5076687;28;20205;-64
2024/01/17 06:05:51;;;;;;;13.13;7.25;;;-2.30;99.90;;;;;;5076493;28;20201;-64
2024/01/17 06:08:17;;;;;;;11.43;7.93;;;-2.30;99.90;;;;;;5076135;28;20227;-64
2024/01/17 06:10:44;;;;;;;11.02;8.00;;;-2.30;99.90;;;;;;5076669;28;20201;-64
2024/01/17 06:13:12;;;;;;;11.93;8.50;;;-2.30;99.90;;;;;;5079521;28;20598;-64
2024/01/17 06:15:39;;;;;;;12.48;8.55;;;-2.30;99.90;;;;;;5074799;28;20208;-63
2024/01/17 06:18:06;;;;;;;19.17;8.10;;;-2.30;99.90;;;;;;5074830;28;20197;-62
2024/01/17 06:20:32;;;;;;;14.88;8.80;;;-2.30;99.90;;;;;;5074504;28;20556;-63
2024/01/17 06:22:59;;;;;;;15.15;8.43;;;-2.30;99.90;;;;;;5076374;28;20655;-62
2024/01/17 06:25:26;;;;;;;17.80;8.85;;;-2.30;99.90;;;;;;5076620;28;20262;-62
2024/01/17 06:27:53;;;;;;;12.95;7.97;;;-2.30;99.90;;;;;;5075764;28;20197;-64
2024/01/17 06:30:21;;;;;;;14.05;8.75;;;-2.30;99.90;;;;;;5074646;28;20201;-63
2024/01/17 06:32:48;;;;;;;14.57;8.15;;;-2.30;99.90;;;;;;5074760;28;20224;-63
2024/01/17 06:35:14;;;;;;;12.85;9.80;;;-2.20;99.90;;;;;;5073513;28;20204;-64
2024/01/17 06:37:41;;;;;;;9.85;7.75;;;-2.20;99.90;;;;;;5074549;28;20594;-63
2024/01/17 06:40:09;;;;;;;12.30;8.63;;;-2.20;99.90;;;;;;5074280;28;20216;-63
2024/01/17 06:42:36;;;;;;;11.95;8.23;;;-2.20;99.90;;;;;;5073734;28;20217;-64
2024/01/17 06:45:03;;;;;;;10.43;8.05;;;-2.20;99.90;;;;;;5074342;28;20208;-63
2024/01/17 06:47:31;;;;;;;15.40;8.57;;;-2.20;99.90;;;;;;5074316;28;20197;-63
2024/01/17 06:49:58;;;;;;;13.32;8.48;;;-2.30;99.90;;;;;;5074068;28;20201;-64
2024/01/17 06:52:24;;;;;;;16.52;8.88;;;-2.30;99.90;;;;;;5073796;28;20221;-63
2024/01/17 06:54:51;;;;;;;17.38;8.55;;;-2.30;99.90;;;;;;5074238;28;20206;-64
2024/01/17 06:57:18;;;;;;;16.23;8.50;;;-2.30;99.90;;;;;;5074262;28;20204;-64
2024/01/17 06:59:44;;;;;;;12.30;8.55;;;-2.30;99.90;;;;;;5074033;28;20661;-63
2024/01/17 07:02:12;;;;;;;10.20;8.05;;;-2.30;99.90;;;;;;5073896;28;20220;-64
2024/01/17 07:04:42;;;;;;;24.00;9.15;;;-2.30;99.90;;;;;;5074465;28;20220;-64
2024/01/17 07:07:09;;;;;;;13.85;7.57;;;-2.30;99.90;;;;;;5073886;28;20201;-64
2024/01/17 07:09:35;;;;;;;16.35;8.77;;;-2.30;99.90;;;;;;5073620;28;20207;-62
2024/01/17 07:12:02;;;;;;;10.85;7.32;;;-2.30;99.90;;;;;;5073294;28;20273;-63
2024/01/17 07:14:29;;;;;;;13.35;8.57;;;-2.30;99.90;;;;;;5073847;28;20209;-64
2024/01/17 07:16:56;;;;;;;12.00;8.43;;;-2.30;99.90;;;;;;5074060;28;20205;-64
2024/01/17 07:19:22;;;;;;;15.70;9.13;;;-2.30;99.90;;;;;;5078874;28;20226;-63
2024/01/17 07:21:51;;;;;;;12.40;9.65;;;-2.30;99.90;;;;;;5079202;28;20290;-63
2024/01/17 07:24:17;;;;;;;16.20;8.70;;;-2.30;99.90;;;;;;5077817;28;20209;-62
2024/01/17 07:26:44;;;;;;;14.00;9.32;;;-2.30;99.90;;;;;;5078297;28;20209;-62
2024/01/17 07:29:11;;;;;;;13.88;9.65;;;-2.20;99.90;;;;;;5080664;28;20208;-63
2024/01/17 07:31:38;;;;;;;15.77;9.20;;;-2.20;99.90;;;;;;5076419;28;20221;-64
2024/01/17 07:34:05;;;;;;;16.83;9.68;;;-2.20;99.90;;;;;;5073270;28;20205;-63
2024/01/17 07:36:31;;;;;;;11.52;7.88;;;-2.20;99.90;;;;;;5074061;28;20217;-64
2024/01/17 07:39:00;;;;;;;12.65;9.15;;;-2.10;99.90;;;;;;5073481;28;20196;-64
2024/01/17 07:41:26;;;;;;;12.88;8.48;;;-2.10;99.90;;;;;;5075559;28;20228;-64
2024/01/17 07:43:53;;;;;;;12.65;9.43;;;-2.10;99.90;;;;;;5074045;28;20566;-62
2024/01/17 07:46:21;;;;;;;13.27;8.95;;;-2.00;99.90;;;;;;5073363;28;20211;-63
2024/01/17 07:48:47;;;;;;;12.90;8.02;;;-2.00;99.90;;;;;;5074150;28;20209;-62
2024/01/17 07:51:14;;;;;;;13.32;8.05;;;-2.00;99.90;;;;;;5073575;28;20729;-62
2024/01/17 07:53:41;;;;;;;12.88;7.20;;;-1.90;99.90;;;;;;5073599;28;20221;-63
2024/01/17 07:56:10;;;;;;;8.90;7.38;;;-1.90;99.90;;;;;;5073205;28;20205;-63
2024/01/17 07:58:37;;;;;;;14.77;8.40;;;-1.90;99.90;;;;;;5073301;28;20227;-65
2024/01/17 08:01:05;;;;;;;11.05;7.38;;;-1.80;99.90;;;;;;5073832;28;20205;-63
2024/01/17 08:03:32;;;;;;;13.10;8.73;;;-1.80;99.90;;;;;;5073688;28;20199;-63
2024/01/17 08:05:58;;;;;;;16.58;7.85;;;-1.80;99.90;;;;;;5073054;28;20201;-64
2024/01/17 08:08:25;;;;;;;13.13;8.20;;;-1.80;99.90;;;;;;5073796;28;20258;-65
2024/01/17 08:10:52;;;;;;;14.02;7.82;;;-1.80;99.90;;;;;;5074461;28;20240;-64
2024/01/17 08:13:20;;;;;;;15.50;9.05;;;-1.70;99.90;;;;;;5074259;28;20693;-66
2024/01/17 08:15:47;;;;;;;12.15;8.55;;;-1.70;99.90;;;;;;5073937;28;20266;-64
2024/01/17 08:18:14;;;;;;;10.60;7.82;;;-1.70;99.90;;;;;;5077538;28;20533;-64
2024/01/17 08:20:41;;;;;;;14.25;6.82;;;-1.60;99.90;;;;;;5084956;28;20652;-63
2024/01/17 08:23:08;;;;;;;13.77;7.75;;;-1.60;99.90;;;;;;5088225;28;20228;-63
2024/01/17 08:25:34;;;;;;;9.13;7.85;;;-1.50;99.90;;;;;;5086804;28;20277;-64
2024/01/17 08:28:03;;;;;;;12.65;6.97;;;-1.50;99.90;;;;;;5081220;28;20296;-64
2024/01/17 08:30:31;;;;;;;12.55;7.80;;;-1.50;99.90;;;;;;5073209;28;20704;-63
2024/01/17 08:32:58;;;;;;;10.25;7.50;;;-1.50;99.90;;;;;;5073894;28;20225;-64
2024/01/17 08:35:28;;;;;;;13.38;8.23;;;-1.40;99.90;;;;;;5073757;28;20201;-62
2024/01/17 08:37:54;;;;;;;16.63;6.85;;;-1.40;99.90;;;;;;5073519;28;20197;-65
2024/01/17 08:40:21;;;;;;;11.18;7.50;;;-1.40;99.90;;;;;;5076710;28;20212;-63
2024/01/17 08:42:48;;;;;;;14.27;8.15;;;-1.40;99.90;;;;;;5073128;28;20242;-64
2024/01/17 08:45:15;;;;;;;16.27;7.05;;;-1.30;99.90;;;;;;5073551;28;20231;-64
2024/01/17 08:47:43;;;;;;;13.98;8.27;;;-1.30;99.90;;;;;;5073226;28;20246;-63
2024/01/17 08:50:12;;;;;;;9.68;7.10;;;-1.20;99.90;;;;;;5073785;28;20205;-64
2024/01/17 08:52:39;;;;;;;11.38;6.90;;;-1.20;99.90;;;;;;5073167;28;20247;-63
2024/01/17 08:55:08;;;;;;;13.15;8.30;;;-1.10;99.90;;;;;;5074312;28;20201;-64
2024/01/17 08:57:36;;;;;;;9.70;6.25;;;-1.00;99.90;;;;;;5072975;28;20197;-64
2024/01/17 09:00:05;;;;;;;11.45;6.95;;;-0.90;99.90;;;;;;5076675;28;20299;-62
2024/01/17 09:02:32;;;;;;;7.82;6.88;;;-0.80;99.90;;;;;;5077734;28;20221;-64
2024/01/17 09:05:00;;;;;;;9.00;6.38;;;-0.80;99.90;;;;;;5079967;28;20216;-62
2024/01/17 09:07:27;;;;;;;12.02;6.85;;;-0.80;99.90;;;;;;5080587;28;20671;-64
2024/01/17 09:09:53;;;;;;;16.88;7.78;;;-0.80;99.90;;;;;;5080786;28;20216;-63
2024/01/17 09:12:20;;;;;;;13.20;8.00;;;-0.70;99.90;;;;;;5078516;28;20252;-63
2024/01/17 09:14:47;;;;;;;15.43;7.45;;;-0.60;99.90;;;;;;5078937;28;20201;-64
2024/01/17 09:17:14;;;;;;;12.50;7.93;;;-0.50;99.90;;;;;;5077757;28;20213;-64
2024/01/17 09:19:41;;;;;;;17.75;7.10;;;-0.50;99.90;;;;;;5077219;28;20208;-64
2024/01/17 09:22:09;;;;;;;19.63;9.27;;;-0.40;99.90;;;;;;5077420;28;20229;-63
2024/01/17 09:24:37;;;;;;;11.32;7.30;;;-0.40;99.90;;;;;;5077141;28;20197;-64
2024/01/17 09:27:04;;;;;;;17.65;9.43;;;-0.40;99.90;;;;;;5076715;28;20287;-62
2024/01/17 09:29:33;;;;;;;11.13;7.18;;;-0.30;99.90;;;;;;5076930;28;20197;-63
2024/01/17 09:32:00;;;;;;;16.05;10.77;;;-0.40;99.90;;;;;;5076763;28;20251;-63
2024/01/17 09:34:29;;;;;;;10.77;7.57;;;-0.40;99.90;;;;;;5076744;28;20224;-63
2024/01/17 09:36:56;;;;;;;15.63;7.45;;;-0.40;99.90;;;;;;5077168;28;20240;-63
2024/01/17 09:39:24;;;;;;;16.67;8.15;;;-0.40;99.90;;;;;;5077495;28;20201;-63
2024/01/17 09:41:51;;;;;;;14.68;8.82;;;-0.40;99.90;;;;;;5078533;28;20217;-64
2024/01/17 09:44:18;;;;;;;11.50;7.88;;;-0.40;99.90;;;;;;5080126;28;20193;-64
2024/01/17 09:46:46;;;;;;;15.45;7.97;;;-0.30;99.90;;;;;;5079325;28;20201;-63
2024/01/17 09:49:13;;;;;;;20.45;10.48;;;-0.20;99.90;;;;;;5080865;28;20574;-63
2024/01/17 09:51:40;;;;;;;12.98;6.97;;;-0.20;99.90;;;;;;5080400;28;20228;-63
2024/01/17 09:54:07;;;;;;;12.05;8.02;;;-0.20;99.90;;;;;;5079990;28;20239;-62
2024/01/17 09:56:36;;;;;;;11.00;6.72;;;-0.20;99.90;;;;;;5079075;28;20205;-62
2024/01/17 09:59:13;;;;;;;12.45;7.15;;;-0.10;99.90;;;;;;5076002;28;20216;-64
2024/01/17 10:01:41;;;;;;;11.88;6.75;;;-0.10;99.90;;;;;;5075564;28;20228;-64
2024/01/17 10:04:11;;;;;;;10.90;7.15;;;0.00;99.90;;;;;;5075616;28;20209;-65
2024/01/17 10:06:39;;;;;;;10.32;7.60;;;0.00;99.90;;;;;;5075363;28;20266;-64
2024/01/17 10:09:07;;;;;;;11.38;6.88;;;0.10;99.90;;;;;;5075608;28;20205;-65
2024/01/17 10:11:35;;;;;;;9.05;7.07;;;0.10;99.90;;;;;;5075096;28;20236;-63
2024/01/17 10:14:02;;;;;;;21.75;8.18;;;0.20;99.90;;;;;;5074622;28;20224;-64
2024/01/17 10:16:29;;;;;;;13.48;7.82;;;0.30;99.90;;;;;;5075469;28;20230;-64
2024/01/17 10:18:56;;;;;;;14.52;6.85;;;0.40;99.90;;;;;;5074985;28;20216;-63
2024/01/17 10:21:23;;;;;;;8.88;6.65;;;0.40;99.90;;;;;;5074891;28;20223;-64
2024/01/17 10:23:50;;;;;;;10.48;7.57;;;0.50;99.90;;;;;;5074931;28;20193;-64
2024/01/17 10:26:17;;;;;;;8.55;7.00;;;0.50;99.90;;;;;;5074557;28;20208;-63
2024/01/17 10:28:46;;;;;;;7.30;5.53;;;0.60;99.90;;;;;;5074318;28;20216;-63
2024/01/17 10:31:13;;;;;;;14.93;7.80;;;0.60;99.90;;;;;;5075634;28;20200;-64
2024/01/17 10:33:41;;;;;;;13.98;6.97;;;0.60;99.90;;;;;;5074472;28;20240;-64
2024/01/17 10:36:08;;;;;;;10.73;6.65;;;0.60;99.90;;;;;;5074517;28;20237;-65
2024/01/17 10:38:35;;;;;;;8.27;6.30;;;0.60;99.90;;;;;;5074954;28;20216;-65
2024/01/17 10:41:06;;;;;;;10.32;7.13;;;0.60;99.90;;;;;;5074978;28;20201;-65
2024/01/17 10:43:33;;;;;;;13.13;6.88;;;0.60;99.90;;;;;;5074257;28;20573;-63
2024/01/17 10:46:09;;;;;;;12.80;7.50;;;0.70;99.90;;;;;;5074414;28;20243;-63
2024/01/17 10:48:36;;;;;;;8.98;7.07;;;0.70;99.90;;;;;;5074614;28;20185;-63
2024/01/17 10:51:04;;;;;;;20.02;8.07;;;0.70;99.90;;;;;;5074296;28;20311;-63
2024/01/17 10:53:32;;;;;;;11.57;7.05;;;0.70;99.90;;;;;;5074226;28;20248;-64
2024/01/17 10:56:03;;;;;;;11.13;6.80;;;0.70;99.90;;;;;;5074874;28;20205;-63
2024/01/17 10:58:35;;;;;;;14.90;7.25;;;0.70;99.90;;;;;;5074531;28;20189;-64
2024/01/17 11:01:05;;;;;;;13.82;7.38;;;0.50;99.90;;;;;;5074878;28;20185;-63
2024/01/17 11:03:35;;;;;;;8.85;7.03;;;0.50;99.90;;;;;;5079192;28;20188;-64
2024/01/17 11:06:03;;;;;;;15.27;6.82;;;0.50;99.90;;;;;;5079865;28;20200;-63
2024/01/17 11:08:31;;;;;;;11.95;7.50;;;0.40;99.90;;;;;;5077320;28;20216;-63
2024/01/17 11:10:59;;;;;;;8.02;6.47;;;0.50;99.90;;;;;;5076770;28;20213;-65
2024/01/17 11:13:26;;;;;;;9.73;6.53;;;0.50;99.90;;;;;;5075894;28;20592;-64
2024/01/17 11:15:54;;;;;;;11.95;6.93;;;0.60;99.90;;;;;;5074900;28;20201;-63
2024/01/17 11:18:25;;;;;;;11.93;6.07;;;0.70;99.90;;;;;;5074561;28;20201;-63
2024/01/17 11:20:53;;;;;;;15.07;8.20;;;0.80;99.90;;;;;;5074189;28;20189;-63
2024/01/17 11:23:27;;;;;;;11.90;5.85;;;0.80;99.90;;;;;;5074558;28;20201;-64
2024/01/17 11:26:03;;;;;;;19.13;7.82;;;0.90;99.90;;;;;;5074132;28;20196;-63
2024/01/17 11:28:38;;;;;;;13.90;8.13;;;1.00;99.70;;;;;;5075296;28;20239;-64
2024/01/17 11:31:19;;;;;;;14.05;7.88;;;1.00;99.40;;;;;;5074126;28;20281;-64
2024/01/17 11:33:48;;;;;;;14.20;7.05;;;1.10;99.30;;;;;;5073435;28;20209;-63
2024/01/17 11:36:42;;;;;;;10.60;7.70;;;1.20;99.20;;;;;;5073781;28;20211;-64
2024/01/17 11:39:11;;;;;;;10.65;7.32;;;1.20;98.80;;;;;;5073851;28;20182;-63
2024/01/17 11:41:38;;;;;;;11.48;7.85;;;1.30;98.50;;;;;;5073460;28;20714;-63
2024/01/17 11:44:07;;;;;;;13.40;8.05;;;1.30;98.40;;;;;;5073629;28;20230;-64
2024/01/17 11:46:34;;;;;;;10.10;7.25;;;1.30;98.30;;;;;;5076063;28;20205;-64
2024/01/17 11:49:04;;;;;;;11.85;7.03;;;1.30;98.20;;;;;;5075556;28;20228;-64
2024/01/17 11:51:33;;;;;;;11.20;7.00;;;1.30;98.20;;;;;;5074748;28;20251;-64
2024/01/17 11:54:03;;;;;;;15.80;6.78;;;1.40;98.20;;;;;;5074299;28;20266;-63
2024/01/17 11:56:30;;;;;;;14.35;7.63;;;1.50;98.20;;;;;;5075146;28;20212;-61
2024/01/17 11:59:04;;;;;;;10.25;6.88;;;1.60;98.00;;;;;;5076299;28;20211;-63
2024/01/17 12:01:41;;;;;;;14.25;6.97;;;1.70;97.70;;;;;;5077793;28;20243;-63
2024/01/17 12:04:14;;;;;;;10.43;7.13;;;1.80;97.50;;;;;;5076633;28;20292;-63
2024/01/17 12:06:42;;;;;;;9.20;7.18;;;1.80;97.40;;;;;;5075686;28;20657;-65
2024/01/17 12:09:18;;;;;;;10.35;6.65;;;1.80;97.30;;;;;;5075982;28;20211;-63
2024/01/17 12:11:48;;;;;;;10.82;6.70;;;1.80;97.10;;;;;;5074168;28;20270;-64
2024/01/17 12:14:15;;;;;;;11.60;6.82;;;1.70;96.90;;;;;;5074642;28;20224;-65
2024/01/17 12:16:42;;;;;;;20.42;9.40;;;1.70;97.10;;;;;;5074775;28;20201;-63
2024/01/17 12:19:10;;;;;;;13.32;7.93;;;1.70;96.80;;;;;;5073408;28;20216;-62
2024/01/17 12:21:39;;;;;;;11.60;7.10;;;1.70;96.60;;;;;;5073868;28;20623;-63
2024/01/17 12:24:11;;;;;;;14.20;8.50;;;1.80;96.60;;;;;;5074870;28;20573;-63
2024/01/17 12:26:38;;;;;;;11.02;8.32;;;1.80;96.50;;;;;;5079480;28;20186;-63
2024/01/17 12:29:09;;;;;;;11.50;9.07;;;1.80;96.50;;;;;;5073457;28;20205;-64
2024/01/17 12:31:36;;;;;;;10.13;5.72;;;1.80;96.00;;;;;;5073037;28;20227;-63
2024/01/17 12:34:04;;;;;;;11.10;6.65;;;1.70;95.40;;;;;;5076335;28;20221;-63
2024/01/17 12:36:32;;;;;;;16.83;7.82;;;1.60;94.80;;;;;;5077337;28;20736;-63
2024/01/17 12:39:03;;;;;;;17.33;9.63;;;1.40;95.00;;;;;;5077887;28;20327;-62
2024/01/17 12:41:32;;;;;;;13.13;7.00;;;1.40;95.50;;;;;;5078126;28;20228;-63
2024/01/17 12:43:59;;;;;;;10.20;7.50;;;1.50;95.70;;;;;;5077499;28;20258;-64
2024/01/17 12:46:26;;;;;;;12.70;7.22;;;1.60;95.50;;;;;;5077497;28;20215;-64